Time;durP1;ratioP1;P1;durP2;ratioP2;P2;SDS_P1;SDS_P2;PMS_P1;PMS_P2;Temp;Humidity;BMP_temperature;BMP_pressure;BME280_temperature;BME280_humidity;BME280_pressure;Samples;Min_cycle;Max_cycle;Signal;HPM_P1;HPM_P2
2023/06/23 00:02:06;;;;;;;0.32;0.20;;;16.60;99.90;;;;;;5009836;28;20503;-71
2023/06/23 00:04:32;;;;;;;0.10;0.10;;;16.60;99.90;;;;;;5009358;28;20059;-71
2023/06/23 00:07:00;;;;;;;0.20;0.10;;;16.60;99.90;;;;;;5009562;28;20041;-71
2023/06/23 00:09:26;;;;;;;0.75;0.45;;;16.60;99.90;;;;;;5010937;28;20052;-71
2023/06/23 00:11:51;;;;;;;0.00;0.00;;;16.60;99.90;;;;;;4990525;28;20058;-71
2023/06/23 00:14:17;;;;;;;0.10;0.00;;;16.60;99.90;;;;;;5007169;28;20080;-71
2023/06/23 00:16:43;;;;;;;0.00;0.00;;;16.70;99.90;;;;;;5005758;28;20517;-71
2023/06/23 00:19:09;;;;;;;0.08;0.03;;;16.60;99.90;;;;;;5008350;28;20157;-71
2023/06/23 00:21:35;;;;;;;0.10;0.00;;;16.60;99.90;;;;;;5006503;28;20121;-71
2023/06/23 00:24:01;;;;;;;0.10;0.10;;;16.60;99.90;;;;;;4989969;28;20104;-72
2023/06/23 00:26:27;;;;;;;0.20;0.20;;;16.60;99.90;;;;;;5004798;28;20310;-72
2023/06/23 00:28:53;;;;;;;0.05;0.05;;;16.70;99.90;;;;;;4999828;28;20050;-72
2023/06/23 00:31:19;;;;;;;0.13;0.13;;;16.60;99.90;;;;;;5021860;28;20068;-72
2023/06/23 00:33:44;;;;;;;0.00;0.00;;;16.60;99.90;;;;;;5004798;28;20041;-72
2023/06/23 00:36:10;;;;;;;0.28;0.20;;;16.60;99.90;;;;;;5004702;28;20498;-72
2023/06/23 00:38:36;;;;;;;0.20;0.20;;;16.60;99.90;;;;;;5006117;28;20049;-72
2023/06/23 00:41:02;;;;;;;0.43;0.28;;;16.60;99.90;;;;;;5006739;28;20096;-72
2023/06/23 00:43:31;;;;;;;0.85;0.68;;;16.60;99.90;;;;;;5004864;28;20613;-72
2023/06/23 00:46:11;;;;;;;0.40;0.30;;;16.60;99.90;;;;;;5005276;28;20046;-72
2023/06/23 00:48:37;;;;;;;0.45;0.45;;;16.60;99.90;;;;;;5007658;28;20453;-72
2023/06/23 00:51:03;;;;;;;0.00;0.00;;;16.70;99.90;;;;;;5008413;28;20123;-72
2023/06/23 00:53:29;;;;;;;0.20;0.10;;;16.60;99.90;;;;;;5004311;28;20430;-72
2023/06/23 00:55:55;;;;;;;0.30;0.30;;;16.60;99.90;;;;;;5005818;28;20081;-72
2023/06/23 00:58:20;;;;;;;0.10;0.00;;;16.60;99.90;;;;;;5008486;28;20077;-73
2023/06/23 01:00:48;;;;;;;0.10;0.10;;;16.60;99.90;;;;;;5009926;28;20092;-73
2023/06/23 01:03:14;;;;;;;1.27;0.75;;;16.60;99.90;;;;;;5006422;28;20486;-73
2023/06/23 01:05:40;;;;;;;0.22;0.22;;;16.60;99.90;;;;;;4993003;28;20099;-73
2023/06/23 01:08:18;;;;;;;0.60;0.40;;;16.60;99.90;;;;;;5013238;28;20030;-73
2023/06/23 01:10:56;;;;;;;0.38;0.17;;;16.60;99.90;;;;;;5013056;28;20058;-73
2023/06/23 01:13:40;;;;;;;0.63;0.30;;;16.60;99.90;;;;;;5014477;28;20101;-73
2023/06/23 01:20:17;;;;;;;0.00;0.00;;;16.60;99.90;;;;;;5011804;28;20055;-73
2023/06/23 01:22:51;;;;;;;0.20;0.20;;;16.60;99.90;;;;;;5007224;28;20038;-73
2023/06/23 01:25:34;;;;;;;0.10;0.10;;;16.50;99.90;;;;;;5013767;28;20048;-73
2023/06/23 01:28:19;;;;;;;0.05;0.05;;;16.50;99.90;;;;;;5014954;28;20383;-73
2023/06/23 01:30:53;;;;;;;2.63;0.20;;;16.50;99.90;;;;;;5010006;28;20045;-73
2023/06/23 01:33:23;;;;;;;2.15;0.52;;;16.50;99.90;;;;;;5014529;28;20063;-73
2023/06/23 01:36:03;;;;;;;0.38;0.30;;;16.50;99.90;;;;;;5013209;28;20100;-74
2023/06/23 01:38:36;;;;;;;1.23;0.17;;;16.50;99.90;;;;;;5011913;28;20057;-74
2023/06/23 01:41:08;;;;;;;0.67;0.50;;;16.50;99.90;;;;;;5008542;28;20046;-74
2023/06/23 01:43:37;;;;;;;0.52;0.40;;;16.50;99.90;;;;;;5013974;28;20042;-74
2023/06/23 01:46:11;;;;;;;0.20;0.20;;;16.50;99.90;;;;;;5013727;28;20137;-74
2023/06/23 01:48:41;;;;;;;0.45;0.38;;;16.50;99.90;;;;;;5011678;28;20639;-74
2023/06/23 01:51:08;;;;;;;0.20;0.20;;;16.50;99.90;;;;;;4997374;28;20053;-74
2023/06/23 01:53:34;;;;;;;0.17;0.17;;;16.50;99.90;;;;;;5013764;28;20120;-74
2023/06/23 01:56:03;;;;;;;0.10;0.10;;;16.50;99.90;;;;;;4996392;28;20116;-74
2023/06/23 01:58:31;;;;;;;1.27;0.70;;;16.50;99.90;;;;;;5009951;28;20078;-74
2023/06/23 02:00:59;;;;;;;0.10;0.10;;;16.40;99.90;;;;;;5009941;28;20060;-74
2023/06/23 02:03:27;;;;;;;0.05;0.05;;;16.40;99.90;;;;;;5013634;28;20086;-74
2023/06/23 02:05:55;;;;;;;0.63;0.20;;;16.40;99.90;;;;;;5011374;28;20393;-74
2023/06/23 02:08:23;;;;;;;0.57;0.20;;;16.40;99.90;;;;;;5008335;28;20049;-73
2023/06/23 02:10:53;;;;;;;0.28;0.20;;;16.40;99.90;;;;;;5011165;28;20193;-74
2023/06/23 02:13:20;;;;;;;0.57;0.25;;;16.40;99.90;;;;;;5016901;28;20045;-74
2023/06/23 02:15:50;;;;;;;0.10;0.10;;;16.30;99.90;;;;;;5012001;28;20100;-74
2023/06/23 02:18:17;;;;;;;0.30;0.20;;;16.40;99.90;;;;;;5005805;28;20057;-74
2023/06/23 02:20:44;;;;;;;0.35;0.35;;;16.40;99.90;;;;;;5012365;28;20124;-74
2023/06/23 02:23:10;;;;;;;0.05;0.00;;;16.30;99.90;;;;;;5009332;28;20073;-74
2023/06/23 02:25:39;;;;;;;0.20;0.20;;;16.30;99.90;;;;;;5010568;28;20046;-74
2023/06/23 02:28:07;;;;;;;0.30;0.20;;;16.30;99.90;;;;;;5010716;28;20541;-74
2023/06/23 02:30:33;;;;;;;0.38;0.20;;;16.30;99.90;;;;;;5005210;28;20051;-73
2023/06/23 02:32:59;;;;;;;0.03;0.03;;;16.30;99.90;;;;;;5006483;28;20053;-73
2023/06/23 02:35:25;;;;;;;0.40;0.40;;;16.30;99.90;;;;;;4993378;28;20417;-73
2023/06/23 02:37:57;;;;;;;0.20;0.20;;;16.30;99.90;;;;;;5008331;28;20049;-74
2023/06/23 02:40:26;;;;;;;0.05;0.03;;;16.20;99.90;;;;;;4999593;28;20046;-73
2023/06/23 02:43:12;;;;;;;0.00;0.00;;;16.20;99.90;;;;;;5007858;28;20038;-73
2023/06/23 02:45:43;;;;;;;0.10;0.10;;;16.30;99.90;;;;;;5006819;28;20164;-73
2023/06/23 02:48:15;;;;;;;0.32;0.28;;;16.30;99.90;;;;;;5006337;28;20073;-73
2023/06/23 02:50:43;;;;;;;0.43;0.00;;;16.20;99.90;;;;;;4993749;28;20104;-73
2023/06/23 02:53:13;;;;;;;0.85;0.70;;;16.20;99.90;;;;;;5008048;28;20037;-73
2023/06/23 02:55:44;;;;;;;0.10;0.10;;;16.20;99.90;;;;;;5004110;28;20054;-73
2023/06/23 02:58:15;;;;;;;0.20;0.20;;;16.20;99.90;;;;;;5005503;28;20050;-73
2023/06/23 03:00:42;;;;;;;0.22;0.20;;;16.20;99.90;;;;;;5008598;28;20421;-73
2023/06/23 03:03:13;;;;;;;0.30;0.10;;;16.20;99.90;;;;;;5006221;28;20340;-73
2023/06/23 03:05:39;;;;;;;0.15;0.10;;;16.20;99.90;;;;;;4984199;28;20038;-73
2023/06/23 03:08:06;;;;;;;0.20;0.20;;;16.10;99.90;;;;;;5004552;28;20049;-73
2023/06/23 03:10:32;;;;;;;0.10;0.10;;;16.20;99.90;;;;;;5004877;28;20125;-73
2023/06/23 03:13:00;;;;;;;0.35;0.20;;;16.20;99.90;;;;;;4992390;28;20044;-73
2023/06/23 03:15:27;;;;;;;0.15;0.10;;;16.20;99.90;;;;;;5006894;28;20053;-73
2023/06/23 03:17:58;;;;;;;0.15;0.10;;;16.20;99.90;;;;;;4993516;28;20549;-73
2023/06/23 03:20:38;;;;;;;0.28;0.25;;;16.20;99.90;;;;;;5008281;28;20089;-73
2023/06/23 03:23:10;;;;;;;0.22;0.20;;;16.20;99.90;;;;;;5020435;28;20073;-73
2023/06/23 03:25:37;;;;;;;1.90;0.03;;;16.20;99.90;;;;;;5005714;28;20540;-73
2023/06/23 03:28:08;;;;;;;0.38;0.20;;;16.10;99.90;;;;;;4991242;28;20469;-73
2023/06/23 03:30:39;;;;;;;0.00;0.00;;;16.20;99.90;;;;;;5004782;28;20482;-73
2023/06/23 03:33:12;;;;;;;0.00;0.00;;;16.10;99.90;;;;;;5004629;28;20061;-73
2023/06/23 03:35:44;;;;;;;0.35;0.20;;;16.10;99.90;;;;;;5005975;28;20104;-72
2023/06/23 03:38:17;;;;;;;0.00;0.00;;;16.10;99.90;;;;;;5008169;28;20042;-72
2023/06/23 03:40:48;;;;;;;0.10;0.10;;;16.10;99.90;;;;;;5008847;28;20041;-73
2023/06/23 03:43:26;;;;;;;0.43;0.10;;;16.00;99.90;;;;;;5006382;28;20048;-73
2023/06/23 03:45:58;;;;;;;0.50;0.25;;;16.10;99.90;;;;;;5007696;28;20104;-72
2023/06/23 03:48:28;;;;;;;0.10;0.10;;;16.00;99.90;;;;;;5003944;28;20050;-73
2023/06/23 03:50:57;;;;;;;0.35;0.15;;;16.00;99.90;;;;;;4991816;28;20334;-72
2023/06/23 03:53:24;;;;;;;0.55;0.20;;;16.00;99.90;;;;;;5006484;28;20111;-72
2023/06/23 03:55:53;;;;;;;0.00;0.00;;;16.00;99.90;;;;;;5008485;28;20069;-72
2023/06/23 03:58:21;;;;;;;0.50;0.40;;;16.00;99.90;;;;;;4990698;28;20066;-72
2023/06/23 04:00:49;;;;;;;0.25;0.20;;;15.90;99.90;;;;;;5004598;28;20471;-72
2023/06/23 04:03:19;;;;;;;0.10;0.10;;;15.90;99.90;;;;;;5003802;28;20132;-72
2023/06/23 04:05:46;;;;;;;0.00;0.00;;;15.90;99.90;;;;;;5008206;28;20038;-72
2023/06/23 04:08:14;;;;;;;0.40;0.20;;;15.90;99.90;;;;;;5005744;28;20039;-72
2023/06/23 04:10:40;;;;;;;0.10;0.10;;;15.90;99.90;;;;;;5004506;28;20843;-72
2023/06/23 04:13:09;;;;;;;1.45;0.10;;;15.90;99.90;;;;;;5013743;28;20120;-72
2023/06/23 04:15:38;;;;;;;0.20;0.20;;;15.80;99.90;;;;;;5000804;28;20038;-72
2023/06/23 04:18:07;;;;;;;0.13;0.10;;;15.90;99.90;;;;;;5004148;28;20371;-72
2023/06/23 04:20:35;;;;;;;0.75;0.20;;;15.80;99.90;;;;;;5003788;28;20078;-72
2023/06/23 04:23:03;;;;;;;0.40;0.28;;;15.80;99.90;;;;;;5006831;28;20038;-72
2023/06/23 04:25:29;;;;;;;0.00;0.00;;;15.90;99.90;;;;;;5004742;28;20096;-72
2023/06/23 04:28:02;;;;;;;0.00;0.00;;;15.90;99.90;;;;;;5005795;28;20502;-72
2023/06/23 04:30:31;;;;;;;0.38;0.20;;;15.80;99.90;;;;;;5005024;28;20057;-72
2023/06/23 04:32:56;;;;;;;0.00;0.00;;;15.80;99.90;;;;;;5005924;28;20050;-72
2023/06/23 04:35:22;;;;;;;0.00;0.00;;;15.80;99.90;;;;;;5005269;28;20140;-72
2023/06/23 04:38:11;;;;;;;0.63;0.20;;;15.90;99.90;;;;;;5007398;28;20052;-72
2023/06/23 04:40:42;;;;;;;0.00;0.00;;;15.90;99.90;;;;;;5023170;28;20163;-72
2023/06/23 04:43:12;;;;;;;0.05;0.05;;;15.90;99.90;;;;;;5005321;28;20045;-72
2023/06/23 04:45:47;;;;;;;0.00;0.00;;;15.90;99.90;;;;;;5006835;28;20121;-72
2023/06/23 04:48:18;;;;;;;0.20;0.20;;;15.90;99.90;;;;;;5006139;28;20461;-72
2023/06/23 04:50:47;;;;;;;0.10;0.10;;;16.00;99.90;;;;;;4991218;28;20042;-71
2023/06/23 04:53:19;;;;;;;0.10;0.10;;;16.00;99.90;;;;;;5006810;28;20622;-72
2023/06/23 04:55:50;;;;;;;0.40;0.40;;;16.00;99.90;;;;;;5006647;28;20042;-71
2023/06/23 04:58:21;;;;;;;0.68;0.50;;;16.00;99.90;;;;;;5003219;28;20064;-71
2023/06/23 05:00:49;;;;;;;0.00;0.00;;;16.00;99.90;;;;;;5006521;28;20050;-72
2023/06/23 05:03:17;;;;;;;0.05;0.05;;;16.00;99.90;;;;;;5004526;28;20049;-71
2023/06/23 05:05:45;;;;;;;0.22;0.22;;;16.10;99.90;;;;;;5005834;28;20046;-72
2023/06/23 05:08:13;;;;;;;0.30;0.10;;;16.10;99.90;;;;;;5006738;28;20129;-71
2023/06/23 05:10:41;;;;;;;0.05;0.05;;;16.10;99.90;;;;;;5004867;28;20619;-71
2023/06/23 05:13:10;;;;;;;0.15;0.15;;;16.10;99.90;;;;;;5000422;28;20042;-71
2023/06/23 05:15:36;;;;;;;0.10;0.10;;;16.10;99.90;;;;;;5004608;28;20061;-71
2023/06/23 05:18:05;;;;;;;0.25;0.20;;;16.10;99.90;;;;;;5005990;28;20049;-71
2023/06/23 05:20:32;;;;;;;0.40;0.20;;;16.20;99.90;;;;;;5004663;28;20050;-71
2023/06/23 05:23:02;;;;;;;0.20;0.20;;;16.20;99.90;;;;;;5006913;28;20052;-71
2023/06/23 05:25:30;;;;;;;0.32;0.32;;;16.20;99.90;;;;;;5005268;28;20489;-71
2023/06/23 05:28:02;;;;;;;0.40;0.40;;;16.20;99.90;;;;;;5006068;28;20053;-71
2023/06/23 05:30:29;;;;;;;0.35;0.20;;;16.30;99.90;;;;;;5004028;28;20050;-71
2023/06/23 05:32:59;;;;;;;0.10;0.10;;;16.30;99.90;;;;;;4988846;28;20092;-71
2023/06/23 05:35:26;;;;;;;0.00;0.00;;;16.40;99.90;;;;;;5005855;28;20077;-71
2023/06/23 05:37:52;;;;;;;0.10;0.10;;;16.40;99.90;;;;;;4989994;28;20078;-71
2023/06/23 05:40:18;;;;;;;0.00;0.00;;;16.40;99.90;;;;;;5002281;28;20050;-72
2023/06/23 05:42:45;;;;;;;0.38;0.17;;;16.40;99.90;;;;;;5022133;28;20111;-71
2023/06/23 05:45:11;;;;;;;0.20;0.00;;;16.40;99.90;;;;;;5001021;28;20073;-72
2023/06/23 05:48:17;;;;;;;0.10;0.10;;;16.40;99.90;;;;;;5001625;28;20585;-72
2023/06/23 05:50:46;;;;;;;0.10;0.10;;;16.40;99.90;;;;;;4914185;29;20043;-71
2023/06/23 05:53:17;;;;;;;0.30;0.25;;;16.40;99.90;;;;;;4974878;28;20057;-71
2023/06/23 05:56:05;;;;;;;0.28;0.22;;;16.40;99.90;;;;;;5008254;28;20048;-71
2023/06/23 05:58:39;;;;;;;0.10;0.10;;;16.40;99.90;;;;;;4988252;28;20073;-71
2023/06/23 06:01:09;;;;;;;0.10;0.10;;;16.50;99.90;;;;;;5009102;28;20038;-71
2023/06/23 06:03:44;;;;;;;0.25;0.13;;;16.60;99.90;;;;;;5004152;28;20042;-71
2023/06/23 06:06:11;;;;;;;0.43;0.32;;;16.70;99.90;;;;;;5004210;28;20560;-71
2023/06/23 06:08:38;;;;;;;0.00;0.00;;;16.90;99.90;;;;;;5006088;28;20066;-71
2023/06/23 06:11:06;;;;;;;0.43;0.25;;;17.00;99.90;;;;;;5005270;28;20651;-71
2023/06/23 06:13:36;;;;;;;0.57;0.28;;;17.10;99.90;;;;;;5006524;28;20554;-71
2023/06/23 06:16:06;;;;;;;1.17;0.57;;;17.30;99.90;;;;;;5006746;28;20061;-71
2023/06/23 06:18:34;;;;;;;0.50;0.45;;;17.40;99.90;;;;;;5007039;28;20281;-70
2023/06/23 06:21:00;;;;;;;0.30;0.30;;;17.50;99.90;;;;;;5008691;28;20049;-71
2023/06/23 06:23:29;;;;;;;0.35;0.35;;;17.70;99.90;;;;;;5007738;28;20486;-71
2023/06/23 06:25:56;;;;;;;0.22;0.22;;;17.80;99.90;;;;;;5007673;28;20457;-70
2023/06/23 06:28:25;;;;;;;0.30;0.25;;;17.90;99.90;;;;;;5004250;28;20212;-71
2023/06/23 06:30:53;;;;;;;0.32;0.32;;;18.10;99.90;;;;;;5005403;28;20508;-71
2023/06/23 06:33:20;;;;;;;0.85;0.57;;;18.20;99.90;;;;;;4988692;28;20628;-71
2023/06/23 06:35:48;;;;;;;0.40;0.30;;;18.20;99.90;;;;;;5006963;28;20517;-71
2023/06/23 06:38:15;;;;;;;0.17;0.17;;;18.30;99.90;;;;;;5007962;28;20465;-71
2023/06/23 06:40:46;;;;;;;0.10;0.10;;;18.50;99.90;;;;;;5005356;28;20427;-69
2023/06/23 06:43:12;;;;;;;0.75;0.10;;;18.60;99.90;;;;;;5007914;28;20042;-69
2023/06/23 06:45:38;;;;;;;0.15;0.10;;;18.70;99.90;;;;;;5009661;28;20092;-69
2023/06/23 06:48:05;;;;;;;0.13;0.13;;;18.70;99.90;;;;;;5007549;28;20105;-70
2023/06/23 06:50:32;;;;;;;0.00;0.00;;;18.80;99.90;;;;;;5007997;28;20111;-70
2023/06/23 06:52:58;;;;;;;0.10;0.10;;;19.00;99.90;;;;;;5009345;28;20508;-70
2023/06/23 06:55:25;;;;;;;0.55;0.55;;;19.10;99.90;;;;;;5005886;28;20482;-70
2023/06/23 06:57:51;;;;;;;0.50;0.30;;;19.10;99.90;;;;;;5010577;28;20038;-70
2023/06/23 07:00:19;;;;;;;0.10;0.10;;;19.20;99.90;;;;;;5004467;28;20044;-71
2023/06/23 07:02:45;;;;;;;0.00;0.00;;;19.30;99.90;;;;;;5007348;28;20496;-71
2023/06/23 07:05:12;;;;;;;0.13;0.10;;;19.40;99.90;;;;;;5007049;28;20100;-71
2023/06/23 07:07:38;;;;;;;0.32;0.20;;;19.40;99.90;;;;;;5009827;28;20041;-71
2023/06/23 07:10:04;;;;;;;0.70;0.43;;;19.50;99.90;;;;;;5013454;28;20116;-71
2023/06/23 07:12:33;;;;;;;0.70;0.57;;;19.60;99.90;;;;;;5013599;28;20113;-71
2023/06/23 07:14:59;;;;;;;0.00;0.00;;;19.70;99.90;;;;;;5025969;28;20115;-71
2023/06/23 07:17:25;;;;;;;0.65;0.10;;;19.70;99.90;;;;;;5030126;28;20041;-71
2023/06/23 07:19:50;;;;;;;0.50;0.30;;;19.80;99.90;;;;;;5016671;28;20038;-71
2023/06/23 07:22:18;;;;;;;0.15;0.05;;;20.00;99.90;;;;;;5017448;28;20037;-72
2023/06/23 07:24:43;;;;;;;0.20;0.10;;;20.00;99.90;;;;;;5018405;28;20042;-71
2023/06/23 07:27:09;;;;;;;0.15;0.13;;;20.10;99.90;;;;;;5017605;28;20120;-71
2023/06/23 07:29:35;;;;;;;0.30;0.22;;;20.20;99.90;;;;;;5017634;28;20139;-71
2023/06/23 07:32:01;;;;;;;1.17;0.43;;;20.30;99.90;;;;;;5020251;28;20049;-71
2023/06/23 07:34:28;;;;;;;0.90;0.30;;;20.30;99.90;;;;;;5015884;28;20045;-72
2023/06/23 07:36:55;;;;;;;0.10;0.10;;;20.50;99.90;;;;;;5021854;28;20069;-71
2023/06/23 07:39:20;;;;;;;0.17;0.17;;;20.60;99.90;;;;;;5015980;28;20050;-71
2023/06/23 07:41:46;;;;;;;0.20;0.10;;;20.60;99.90;;;;;;5000358;28;20100;-72
2023/06/23 07:44:12;;;;;;;0.40;0.32;;;20.60;99.90;;;;;;5019644;28;20068;-72
2023/06/23 07:46:37;;;;;;;0.88;0.20;;;20.70;99.90;;;;;;5018750;28;20054;-72
2023/06/23 07:49:03;;;;;;;0.00;0.00;;;20.80;99.90;;;;;;5014990;28;20038;-72
2023/06/23 07:51:29;;;;;;;0.00;0.00;;;20.90;99.90;;;;;;5013344;28;20048;-72
2023/06/23 07:53:55;;;;;;;0.45;0.20;;;21.00;99.90;;;;;;5012584;28;20400;-72
2023/06/23 07:56:21;;;;;;;0.17;0.17;;;21.00;99.90;;;;;;5012730;28;20045;-72
2023/06/23 07:58:47;;;;;;;0.40;0.30;;;21.10;99.90;;;;;;5011211;28;20058;-72
2023/06/23 08:01:12;;;;;;;0.43;0.35;;;21.20;99.90;;;;;;5012458;28;20060;-72
2023/06/23 08:03:38;;;;;;;0.10;0.00;;;21.30;99.90;;;;;;5010976;28;20038;-72
2023/06/23 08:06:04;;;;;;;0.10;0.10;;;21.30;99.90;;;;;;5012843;28;20046;-72
2023/06/23 08:08:30;;;;;;;0.00;0.00;;;21.50;99.90;;;;;;5012604;28;20481;-72
2023/06/23 08:10:55;;;;;;;0.10;0.10;;;21.60;99.90;;;;;;5010265;28;20065;-73
2023/06/23 08:13:21;;;;;;;0.00;0.00;;;21.70;99.90;;;;;;5011460;28;20052;-73
2023/06/23 08:15:47;;;;;;;0.00;0.00;;;21.90;99.90;;;;;;5006685;28;20422;-73
2023/06/23 08:18:13;;;;;;;0.03;0.03;;;22.00;99.90;;;;;;5010410;28;20137;-72
2023/06/23 08:20:39;;;;;;;0.30;0.28;;;22.10;99.90;;;;;;5009192;28;20108;-72
2023/06/23 08:23:04;;;;;;;0.00;0.00;;;22.10;99.90;;;;;;5028757;28;20093;-72
2023/06/23 08:25:30;;;;;;;1.20;0.52;;;22.20;99.90;;;;;;5012384;28;20037;-72
2023/06/23 08:27:56;;;;;;;0.00;0.00;;;22.30;99.90;;;;;;5008861;28;20649;-72
2023/06/23 08:30:27;;;;;;;0.00;0.00;;;22.40;99.90;;;;;;5007368;28;20034;-72
2023/06/23 08:32:53;;;;;;;0.00;0.00;;;22.50;99.90;;;;;;5010847;28;20115;-72
2023/06/23 08:35:19;;;;;;;0.68;0.25;;;22.70;99.90;;;;;;5010035;28;20041;-72
2023/06/23 08:37:44;;;;;;;0.20;0.20;;;22.70;99.90;;;;;;5011492;28;20041;-72
2023/06/23 08:40:10;;;;;;;0.30;0.30;;;22.80;99.90;;;;;;5011147;28;20088;-72
2023/06/23 08:42:37;;;;;;;0.10;0.10;;;22.90;99.90;;;;;;5026757;28;20122;-72
2023/06/23 08:45:04;;;;;;;0.10;0.10;;;23.00;99.90;;;;;;5009693;28;20568;-72
2023/06/23 08:47:31;;;;;;;0.00;0.00;;;23.30;99.90;;;;;;5009442;28;20044;-72
2023/06/23 08:49:57;;;;;;;0.00;0.00;;;23.60;99.90;;;;;;5007634;28;20057;-72
2023/06/23 08:52:24;;;;;;;0.08;0.08;;;23.80;99.90;;;;;;5008225;28;20317;-72
2023/06/23 08:54:51;;;;;;;0.10;0.10;;;24.00;99.90;;;;;;5007679;28;20037;-72
2023/06/23 08:57:18;;;;;;;0.20;0.00;;;24.10;99.90;;;;;;5007877;28;20038;-72
2023/06/23 08:59:44;;;;;;;0.20;0.10;;;24.30;98.50;;;;;;5009511;28;20040;-72
2023/06/23 09:02:09;;;;;;;0.10;0.00;;;24.40;99.60;;;;;;4994998;28;20038;-72
2023/06/23 09:04:35;;;;;;;0.00;0.00;;;24.60;98.60;;;;;;5023178;28;20413;-72
2023/06/23 09:07:01;;;;;;;0.00;0.00;;;24.90;98.90;;;;;;5007968;28;20128;-72
2023/06/23 09:09:26;;;;;;;0.00;0.00;;;25.00;99.10;;;;;;5022858;28;20183;-72
2023/06/23 09:11:53;;;;;;;0.30;0.10;;;25.10;97.90;;;;;;5008926;28;20115;-72
2023/06/23 09:14:18;;;;;;;0.00;0.00;;;25.00;99.20;;;;;;5006622;28;20085;-72
2023/06/23 09:16:45;;;;;;;0.40;0.30;;;25.20;99.90;;;;;;5009515;28;20076;-72
2023/06/23 09:19:11;;;;;;;0.10;0.10;;;25.20;99.00;;;;;;5008847;28;20042;-72
2023/06/23 09:21:40;;;;;;;0.00;0.00;;;25.30;99.90;;;;;;5010169;28;20497;-72
2023/06/23 09:24:07;;;;;;;0.00;0.00;;;25.50;99.50;;;;;;5010014;28;20704;-72
2023/06/23 09:26:49;;;;;;;0.00;0.00;;;25.50;97.80;;;;;;5010046;28;20541;-72
2023/06/23 09:29:21;;;;;;;0.00;0.00;;;25.50;99.10;;;;;;5011478;28;20041;-72
2023/06/23 09:31:48;;;;;;;0.30;0.20;;;25.70;99.90;;;;;;5014280;28;20064;-72
2023/06/23 09:34:29;;;;;;;0.00;0.00;;;25.80;99.90;;;;;;5002065;28;20045;-72
2023/06/23 09:37:12;;;;;;;0.10;0.10;;;25.80;98.00;;;;;;5014547;28;20079;-72
2023/06/23 09:39:44;;;;;;;0.10;0.10;;;25.70;96.00;;;;;;5026379;28;20042;-72
2023/06/23 09:42:14;;;;;;;0.10;0.10;;;25.70;97.30;;;;;;5013742;28;20084;-71
2023/06/23 09:44:48;;;;;;;0.05;0.05;;;25.80;99.90;;;;;;5013442;28;20474;-72
2023/06/23 09:47:16;;;;;;;0.10;0.10;;;25.80;99.40;;;;;;5013500;28;20045;-71
2023/06/23 09:49:47;;;;;;;0.10;0.10;;;25.90;97.30;;;;;;5014300;28;20041;-72
2023/06/23 09:52:16;;;;;;;0.00;0.00;;;25.70;88.60;;;;;;5014522;28;20124;-72
2023/06/23 09:54:42;;;;;;;0.00;0.00;;;25.80;94.40;;;;;;5010087;28;20041;-72
2023/06/23 09:57:15;;;;;;;0.00;0.00;;;25.90;94.80;;;;;;5013177;28;20064;-72
2023/06/23 09:59:44;;;;;;;0.00;0.00;;;25.90;82.80;;;;;;5013517;28;20041;-72
2023/06/23 10:02:26;;;;;;;0.05;0.00;;;26.10;82.40;;;;;;5008974;28;20045;-72
2023/06/23 10:05:03;;;;;;;0.15;0.10;;;26.20;87.80;;;;;;5025241;28;20045;-72
2023/06/23 10:07:29;;;;;;;0.30;0.10;;;26.30;89.70;;;;;;4994725;28;20121;-70
2023/06/23 10:09:58;;;;;;;0.00;0.00;;;26.60;88.60;;;;;;5010989;28;20038;-70
2023/06/23 10:12:28;;;;;;;0.03;0.00;;;26.70;87.20;;;;;;5013717;28;20048;-70
2023/06/23 10:14:55;;;;;;;0.00;0.00;;;26.80;87.40;;;;;;5007893;28;20050;-70
2023/06/23 10:17:22;;;;;;;0.10;0.00;;;26.80;91.10;;;;;;5011869;28;20037;-70
2023/06/23 10:19:50;;;;;;;0.00;0.00;;;26.90;77.50;;;;;;5009626;28;20494;-70
2023/06/23 10:22:20;;;;;;;0.20;0.20;;;26.90;84.80;;;;;;5013499;28;20080;-70
2023/06/23 10:24:49;;;;;;;0.10;0.00;;;27.00;90.20;;;;;;5011189;28;20440;-71
2023/06/23 10:27:19;;;;;;;0.00;0.00;;;27.20;79.10;;;;;;5013204;28;20450;-70
2023/06/23 10:29:52;;;;;;;0.10;0.10;;;27.40;79.70;;;;;;5010719;28;20103;-70
2023/06/23 10:32:29;;;;;;;0.05;0.03;;;27.50;77.50;;;;;;5012322;28;20497;-70
2023/06/23 10:35:08;;;;;;;0.10;0.10;;;27.80;85.30;;;;;;5010011;28;20073;-70
2023/06/23 10:37:35;;;;;;;0.30;0.00;;;27.80;81.50;;;;;;5012468;28;20112;-71
2023/06/23 10:40:04;;;;;;;0.55;0.10;;;27.60;77.20;;;;;;5009077;28;20507;-69
2023/06/23 10:42:33;;;;;;;0.00;0.00;;;27.70;80.50;;;;;;5010738;28;20037;-70
2023/06/23 10:45:00;;;;;;;0.10;0.10;;;27.70;84.30;;;;;;4995684;28;20328;-70
2023/06/23 10:47:26;;;;;;;0.00;0.00;;;27.40;85.90;;;;;;5031760;28;20045;-70
2023/06/23 10:49:52;;;;;;;0.10;0.03;;;27.40;92.50;;;;;;5012939;28;20033;-71
2023/06/23 10:52:18;;;;;;;0.00;0.00;;;27.60;90.00;;;;;;5013040;28;20166;-71
2023/06/23 10:54:44;;;;;;;0.00;0.00;;;27.80;78.80;;;;;;5011027;28;20041;-71
2023/06/23 10:57:12;;;;;;;0.10;0.10;;;27.80;74.50;;;;;;5014667;28;20049;-70
2023/06/23 10:59:57;;;;;;;0.00;0.00;;;28.00;85.30;;;;;;4994936;28;20123;-71
2023/06/23 11:02:23;;;;;;;0.00;0.00;;;28.20;75.90;;;;;;5011803;28;20154;-72
2023/06/23 11:04:55;;;;;;;0.00;0.00;;;28.20;68.50;;;;;;5010360;28;20072;-71
2023/06/23 11:07:21;;;;;;;0.03;0.00;;;28.00;65.00;;;;;;5008844;28;20081;-71
2023/06/23 11:09:58;;;;;;;0.20;0.10;;;27.90;70.20;;;;;;4996730;28;20106;-70
2023/06/23 11:12:39;;;;;;;0.00;0.00;;;28.10;68.70;;;;;;5010902;28;20064;-72
2023/06/23 11:15:23;;;;;;;0.00;0.00;;;28.30;71.60;;;;;;5010530;28;20075;-72
2023/06/23 11:18:00;;;;;;;0.20;0.10;;;28.60;72.10;;;;;;5010416;28;20049;-72
2023/06/23 11:20:29;;;;;;;0.00;0.00;;;28.90;65.40;;;;;;5010443;28;20041;-72
2023/06/23 11:23:12;;;;;;;0.00;0.00;;;28.80;61.60;;;;;;5011613;28;20112;-69
2023/06/23 11:25:50;;;;;;;0.10;0.10;;;28.80;67.30;;;;;;4995378;28;20045;-70
2023/06/23 11:28:36;;;;;;;0.15;0.10;;;28.90;65.10;;;;;;5009597;28;20044;-70
2023/06/23 11:31:03;;;;;;;0.10;0.03;;;28.60;63.70;;;;;;4995412;28;20112;-69
2023/06/23 11:33:34;;;;;;;0.00;0.00;;;28.10;60.30;;;;;;5010100;28;20045;-70
2023/06/23 11:36:13;;;;;;;0.20;0.10;;;28.10;62.40;;;;;;5027106;28;20076;-69
2023/06/23 11:38:40;;;;;;;0.10;0.10;;;28.10;65.80;;;;;;5010941;28;20563;-69
2023/06/23 11:41:06;;;;;;;0.28;0.10;;;28.30;63.70;;;;;;5008047;28;20042;-69
2023/06/23 11:43:39;;;;;;;0.10;0.10;;;28.30;62.10;;;;;;5008917;28;20494;-70
2023/06/23 11:46:10;;;;;;;0.10;0.08;;;28.40;60.80;;;;;;5009466;28;20128;-70
2023/06/23 11:48:36;;;;;;;0.10;0.00;;;28.50;63.40;;;;;;5027222;28;20137;-70
2023/06/23 11:51:06;;;;;;;0.40;0.15;;;28.70;63.90;;;;;;5008043;28;20048;-71
2023/06/23 11:53:32;;;;;;;0.00;0.00;;;29.00;62.80;;;;;;5009959;28;20528;-70
2023/06/23 11:56:02;;;;;;;0.10;0.10;;;29.20;63.40;;;;;;5006619;28;20050;-71
2023/06/23 11:58:33;;;;;;;0.30;0.20;;;29.30;61.90;;;;;;5026399;28;20366;-71
2023/06/23 12:00:59;;;;;;;0.10;0.00;;;29.30;61.40;;;;;;5009978;28;20350;-71
2023/06/23 12:03:25;;;;;;;0.00;0.00;;;29.20;59.10;;;;;;5008589;28;20081;-70
2023/06/23 12:05:51;;;;;;;0.00;0.00;;;29.20;58.00;;;;;;5007261;28;20045;-71
2023/06/23 12:08:17;;;;;;;0.00;0.00;;;28.80;58.40;;;;;;5007759;28;20049;-71
2023/06/23 12:10:45;;;;;;;0.00;0.00;;;28.60;58.40;;;;;;5011613;28;20432;-71
2023/06/23 12:13:13;;;;;;;0.10;0.00;;;28.50;62.10;;;;;;5012032;28;20188;-70
2023/06/23 12:15:43;;;;;;;0.10;0.00;;;28.70;59.40;;;;;;5002992;28;20444;-70
2023/06/23 12:18:09;;;;;;;0.00;0.00;;;28.90;65.60;;;;;;5005045;28;20303;-70
2023/06/23 12:20:37;;;;;;;0.28;0.28;;;29.10;62.20;;;;;;5006932;28;20056;-71
2023/06/23 12:23:04;;;;;;;0.13;0.00;;;29.30;56.20;;;;;;5010364;28;20046;-70
2023/06/23 12:25:33;;;;;;;0.20;0.10;;;29.50;58.70;;;;;;5006907;28;20034;-70
2023/06/23 12:28:03;;;;;;;0.20;0.10;;;29.40;56.30;;;;;;5005416;28;20034;-70
2023/06/23 12:30:41;;;;;;;0.10;0.00;;;29.20;52.10;;;;;;5008248;28;20049;-71
2023/06/23 12:33:20;;;;;;;0.20;0.20;;;29.10;52.30;;;;;;5011207;28;20127;-71
2023/06/23 12:35:58;;;;;;;0.15;0.00;;;28.90;53.20;;;;;;4993687;28;20030;-81
2023/06/23 12:38:24;;;;;;;0.00;0.00;;;28.80;54.80;;;;;;5007062;28;20056;-76
2023/06/23 12:40:50;;;;;;;0.28;0.20;;;28.40;52.00;;;;;;5009099;28;20046;-76
2023/06/23 12:43:20;;;;;;;0.28;0.05;;;28.30;54.60;;;;;;5008721;28;20521;-74
2023/06/23 12:45:53;;;;;;;0.10;0.08;;;28.20;53.20;;;;;;5006466;28;20038;-76
2023/06/23 12:48:23;;;;;;;0.10;0.00;;;28.10;51.70;;;;;;5006847;28;20088;-82
2023/06/23 12:50:54;;;;;;;0.13;0.10;;;27.90;52.20;;;;;;4990499;28;20081;-84
2023/06/23 12:53:20;;;;;;;0.00;0.00;;;27.80;54.50;;;;;;5009935;28;20041;-83
2023/06/23 12:55:46;;;;;;;0.15;0.10;;;27.80;56.90;;;;;;5010459;28;20123;-85
2023/06/23 12:58:12;;;;;;;0.10;0.10;;;27.90;55.70;;;;;;5008589;28;20076;-83
2023/06/23 13:00:38;;;;;;;0.00;0.00;;;27.90;56.30;;;;;;5009371;28;20041;-80
2023/06/23 13:03:04;;;;;;;0.00;0.00;;;28.00;55.40;;;;;;5006928;28;20112;-87